Winterhaven, California
Current Conditions -  °F | °C
As of 10:57 AM on Friday 28 Nov 2014 (Local Time) from KNYL Reporting Station
Clear Clear  
Wind Chill: 76°   Ceiling: Unl
Heat Index: 76°   Visibility: 10mi
Dew Point: 23°   Wind: 8mph
Humidity: 14%   Direction: 30°NNE
Pressure: 29.97"   Gusts: NA
Location:  32.74°N, 114.63°W
Report Text: KNYL 281857Z 03007KT 10SM CLR 24/M05 A2997 RMK AO2 SLP147 T02441050 $
Loading
Personal Weather Stations






























Interactive Weather Map New forecast layout! Learn more

10-Day Weather Forecast

Advertisements
Track Severe Weather on mobile